Time;durP1;ratioP1;P1;durP2;ratioP2;P2;SDS_P1;SDS_P2;PMS_P1;PMS_P2;Temp;Humidity;BMP_temperature;BMP_pressure;BME280_temperature;BME280_humidity;BME280_pressure;Samples;Min_cycle;Max_cycle;Signal;HPM_P1;HPM_P2
2022/10/13 00:00:40;;;;;;;32.80;17.33;;;9.90;99.90;;;;;;5023394;28;20197;-78
2022/10/13 00:03:06;;;;;;;33.00;17.60;;;10.10;99.90;;;;;;4988447;28;20060;-77
2022/10/13 00:05:32;;;;;;;24.88;13.40;;;10.00;99.90;;;;;;4988939;28;20129;-80
2022/10/13 00:07:58;;;;;;;27.33;14.18;;;9.90;99.90;;;;;;4990270;28;20113;-76
2022/10/13 00:10:24;;;;;;;22.95;14.20;;;10.10;99.90;;;;;;4984884;28;20050;-77
2022/10/13 00:12:51;;;;;;;24.63;14.90;;;10.10;99.90;;;;;;4986921;28;20030;-77
2022/10/13 00:15:16;;;;;;;26.55;14.30;;;10.10;99.90;;;;;;4986892;28;20049;-77
2022/10/13 00:17:42;;;;;;;29.15;14.73;;;9.90;99.90;;;;;;4992534;28;20043;-77
2022/10/13 00:20:09;;;;;;;29.85;14.02;;;10.20;99.90;;;;;;4992968;28;20429;-75
2022/10/13 00:22:35;;;;;;;23.50;14.10;;;9.90;99.90;;;;;;4989383;28;20049;-78
2022/10/13 00:25:00;;;;;;;22.85;13.52;;;10.10;99.90;;;;;;5019090;28;20034;-76
2022/10/13 00:27:26;;;;;;;28.48;16.15;;;9.90;99.90;;;;;;4988544;28;20133;-78
2022/10/13 00:29:52;;;;;;;31.63;13.73;;;10.10;99.90;;;;;;5017341;28;20042;-77
2022/10/13 00:32:18;;;;;;;24.48;15.02;;;10.00;99.90;;;;;;4987831;28;20461;-75
2022/10/13 00:34:43;;;;;;;20.52;12.38;;;10.00;99.90;;;;;;4987819;28;20079;-77
2022/10/13 00:37:09;;;;;;;23.05;13.85;;;10.10;99.90;;;;;;4988502;28;20058;-76
2022/10/13 00:39:36;;;;;;;22.27;14.13;;;10.20;99.90;;;;;;4987411;28;20081;-77
2022/10/13 00:42:02;;;;;;;27.17;14.48;;;9.90;99.90;;;;;;4987926;28;20596;-77
2022/10/13 00:44:53;;;;;;;20.15;13.40;;;10.00;99.90;;;;;;5022388;28;20149;-78
2022/10/13 00:47:19;;;;;;;25.40;14.85;;;10.00;99.90;;;;;;5016330;28;20053;-76
2022/10/13 00:49:45;;;;;;;25.50;15.68;;;10.00;99.90;;;;;;5015176;28;20039;-76
2022/10/13 00:52:13;;;;;;;24.60;14.65;;;10.00;99.90;;;;;;4992526;28;20493;-76
2022/10/13 00:54:39;;;;;;;23.17;16.83;;;9.90;99.90;;;;;;4983642;28;20042;-76
2022/10/13 00:57:07;;;;;;;25.65;15.00;;;9.90;99.90;;;;;;4984581;28;20049;-76
2022/10/13 00:59:33;;;;;;;26.27;14.00;;;10.00;99.90;;;;;;5008742;28;20043;-76
2022/10/13 01:02:01;;;;;;;25.33;14.35;;;10.10;99.90;;;;;;5018571;28;20046;-77
2022/10/13 01:04:42;;;;;;;27.27;15.27;;;10.10;99.90;;;;;;5002527;28;20082;-76
2022/10/13 01:07:08;;;;;;;29.75;15.00;;;9.90;99.90;;;;;;4988037;28;20494;-76
2022/10/13 01:09:37;;;;;;;31.88;15.10;;;10.00;99.90;;;;;;4998126;28;20408;-77
2022/10/13 01:12:38;;;;;;;29.27;16.05;;;10.20;99.90;;;;;;4984810;28;20094;-76
2022/10/13 01:15:10;;;;;;;26.73;14.32;;;10.00;99.90;;;;;;4959630;28;20112;-77
2022/10/13 01:17:52;;;;;;;28.73;16.70;;;10.00;99.90;;;;;;4987340;28;20046;-76
2022/10/13 01:20:26;;;;;;;28.35;15.25;;;10.00;99.90;;;;;;4984834;28;20077;-76
2022/10/13 01:23:04;;;;;;;24.75;13.70;;;9.80;99.90;;;;;;4988115;28;20047;-77
2022/10/13 01:25:55;;;;;;;21.27;14.38;;;9.70;99.90;;;;;;4971306;28;20046;-76
2022/10/13 01:28:33;;;;;;;32.42;14.80;;;9.70;99.90;;;;;;4975653;28;20043;-77
2022/10/13 01:31:24;;;;;;;27.67;14.18;;;9.90;99.90;;;;;;4987436;28;20045;-76
2022/10/13 01:34:25;;;;;;;20.27;13.57;;;9.90;99.90;;;;;;4986589;28;20041;-77
2022/10/13 01:37:05;;;;;;;31.63;16.30;;;9.70;99.90;;;;;;5013851;28;20049;-76
2022/10/13 01:39:45;;;;;;;29.17;17.10;;;9.80;99.90;;;;;;4986328;28;20077;-76
2022/10/13 01:42:40;;;;;;;23.63;16.55;;;9.80;99.90;;;;;;4984742;28;20164;-77
2022/10/13 01:45:08;;;;;;;27.52;14.48;;;10.00;99.90;;;;;;4982629;28;20035;-77
2022/10/13 01:47:35;;;;;;;23.10;14.70;;;10.00;99.90;;;;;;5014118;28;20046;-76
2022/10/13 01:50:02;;;;;;;23.92;15.63;;;10.00;99.90;;;;;;4984985;28;20133;-77
2022/10/13 01:52:34;;;;;;;24.75;14.88;;;10.10;99.90;;;;;;5020023;28;20038;-76
2022/10/13 01:55:10;;;;;;;26.42;15.25;;;9.90;99.90;;;;;;4992665;28;20042;-76
2022/10/13 01:57:41;;;;;;;27.25;14.82;;;9.80;99.90;;;;;;5006588;28;20089;-76
2022/10/13 02:00:16;;;;;;;38.65;17.45;;;9.80;99.90;;;;;;4990335;28;20046;-76
2022/10/13 02:03:22;;;;;;;34.92;15.68;;;9.90;99.90;;;;;;4993125;28;20049;-77
2022/10/13 02:06:21;;;;;;;22.95;12.80;;;9.80;99.90;;;;;;4975981;28;20047;-78
2022/10/13 02:09:05;;;;;;;29.63;16.35;;;9.90;99.90;;;;;;4995928;28;20061;-78
2022/10/13 02:11:31;;;;;;;20.45;14.75;;;10.00;99.90;;;;;;4989414;28;20144;-77
2022/10/13 02:14:13;;;;;;;29.05;16.15;;;10.00;99.90;;;;;;4978041;28;20046;-77
2022/10/13 02:16:43;;;;;;;19.50;13.82;;;9.80;99.90;;;;;;5022761;28;20050;-76
2022/10/13 02:19:14;;;;;;;28.80;15.23;;;10.10;99.90;;;;;;4993426;28;20748;-77
2022/10/13 02:21:40;;;;;;;33.97;17.77;;;9.90;99.90;;;;;;4989478;28;20043;-77
2022/10/13 02:24:07;;;;;;;22.40;15.48;;;9.80;99.90;;;;;;4976598;28;20046;-76
2022/10/13 02:26:34;;;;;;;31.95;16.67;;;10.00;99.90;;;;;;4995052;28;20180;-78
2022/10/13 02:29:06;;;;;;;24.92;16.77;;;9.80;99.90;;;;;;4984938;28;20100;-77
2022/10/13 02:31:31;;;;;;;22.88;15.60;;;9.70;99.90;;;;;;5023200;28;20059;-75
2022/10/13 02:33:57;;;;;;;21.35;14.18;;;10.10;99.90;;;;;;5003694;28;20038;-76
2022/10/13 02:36:23;;;;;;;24.45;14.60;;;9.80;99.90;;;;;;5021685;28;20050;-77
2022/10/13 02:38:48;;;;;;;26.95;15.57;;;9.90;99.90;;;;;;4983998;28;20057;-76
2022/10/13 02:41:14;;;;;;;40.72;16.58;;;10.00;99.90;;;;;;4990157;28;20053;-76
2022/10/13 02:43:39;;;;;;;27.40;14.30;;;10.00;99.90;;;;;;4997697;28;20046;-76
2022/10/13 02:46:05;;;;;;;22.30;14.88;;;10.00;99.90;;;;;;4992855;28;20037;-76
2022/10/13 02:48:31;;;;;;;29.33;16.13;;;9.80;99.90;;;;;;4989437;28;20311;-76
2022/10/13 02:50:56;;;;;;;28.60;17.08;;;10.00;99.90;;;;;;4990650;28;20081;-76
2022/10/13 02:53:22;;;;;;;25.48;16.08;;;9.90;99.90;;;;;;4986421;28;20548;-76
2022/10/13 02:55:48;;;;;;;32.28;17.05;;;9.90;99.90;;;;;;5016269;28;20085;-76
2022/10/13 02:58:14;;;;;;;26.58;16.38;;;10.10;99.90;;;;;;5020319;28;20135;-77
2022/10/13 03:00:39;;;;;;;29.08;16.67;;;10.20;99.90;;;;;;5020613;28;20122;-76
2022/10/13 03:03:05;;;;;;;27.30;15.15;;;10.00;99.90;;;;;;5021070;28;20125;-76
2022/10/13 03:05:31;;;;;;;29.83;17.55;;;10.10;99.90;;;;;;4991838;28;20042;-77
2022/10/13 03:07:57;;;;;;;31.52;18.67;;;10.00;99.90;;;;;;4989269;28;20046;-77
2022/10/13 03:10:23;;;;;;;25.42;15.65;;;10.00;99.90;;;;;;5004176;28;20104;-77
2022/10/13 03:12:48;;;;;;;28.83;18.60;;;10.20;99.90;;;;;;4986179;28;20430;-77
2022/10/13 03:15:14;;;;;;;24.77;17.30;;;10.10;99.90;;;;;;5004878;28;20468;-75
2022/10/13 03:17:40;;;;;;;29.10;16.38;;;10.10;99.90;;;;;;4984766;28;20049;-77
2022/10/13 03:20:06;;;;;;;27.65;16.65;;;10.10;99.90;;;;;;4999180;28;20039;-76
2022/10/13 03:22:32;;;;;;;29.98;18.15;;;10.10;99.90;;;;;;4992542;28;20061;-77
2022/10/13 03:24:58;;;;;;;34.13;18.88;;;10.20;99.90;;;;;;5021824;28;20034;-76
2022/10/13 03:27:24;;;;;;;35.72;18.88;;;10.20;99.90;;;;;;5025140;28;20073;-76
2022/10/13 03:29:49;;;;;;;28.52;16.27;;;10.10;99.90;;;;;;4993031;28;20046;-76
2022/10/13 03:32:15;;;;;;;33.35;17.80;;;10.10;99.90;;;;;;5005403;28;20061;-76
2022/10/13 03:34:41;;;;;;;27.75;17.45;;;10.10;99.90;;;;;;4996392;28;20096;-75
2022/10/13 03:37:07;;;;;;;29.25;19.15;;;10.30;99.90;;;;;;5018534;28;20050;-76
2022/10/13 03:39:33;;;;;;;26.70;16.70;;;10.30;99.90;;;;;;5017129;28;20129;-76
2022/10/13 03:41:58;;;;;;;30.13;16.30;;;10.20;99.90;;;;;;5023112;28;20047;-76
2022/10/13 03:44:24;;;;;;;32.15;18.52;;;10.20;99.90;;;;;;4988243;28;20069;-76
2022/10/13 03:46:50;;;;;;;27.33;19.20;;;10.30;99.90;;;;;;4984496;28;20057;-76
2022/10/13 03:49:17;;;;;;;29.08;18.58;;;10.00;99.90;;;;;;4989300;28;20046;-76
2022/10/13 03:51:43;;;;;;;29.00;18.60;;;10.20;99.90;;;;;;4989233;28;20065;-76
2022/10/13 03:54:11;;;;;;;27.77;19.30;;;10.10;99.90;;;;;;4987253;28;20412;-76
2022/10/13 03:56:38;;;;;;;26.67;17.38;;;10.00;99.90;;;;;;5020716;28;20038;-76
2022/10/13 03:59:04;;;;;;;25.48;15.55;;;10.10;99.90;;;;;;5015959;28;20042;-76
2022/10/13 04:01:31;;;;;;;30.95;17.65;;;9.90;99.90;;;;;;4987404;28;20041;-76
2022/10/13 04:04:01;;;;;;;28.38;19.77;;;10.20;99.90;;;;;;4989335;28;20045;-76
2022/10/13 04:06:27;;;;;;;33.00;19.98;;;9.90;99.90;;;;;;4985935;28;20047;-76
2022/10/13 04:08:53;;;;;;;28.88;16.83;;;10.00;99.90;;;;;;4993819;28;20170;-76
2022/10/13 04:11:20;;;;;;;31.45;20.25;;;10.00;99.90;;;;;;4982260;28;20081;-76
2022/10/13 04:13:46;;;;;;;31.50;18.20;;;9.90;99.90;;;;;;4988947;28;20046;-76
2022/10/13 04:16:22;;;;;;;28.13;18.95;;;10.20;99.90;;;;;;4989253;28;20508;-76
2022/10/13 04:18:55;;;;;;;26.60;18.38;;;9.90;99.90;;;;;;4988802;28;20606;-76
2022/10/13 04:21:22;;;;;;;54.10;18.58;;;9.80;99.90;;;;;;4991149;28;20058;-76
2022/10/13 04:23:47;;;;;;;42.05;20.95;;;10.10;99.90;;;;;;5022924;28;20049;-76
2022/10/13 04:26:19;;;;;;;35.10;20.80;;;10.00;99.90;;;;;;4989161;28;20501;-76
2022/10/13 04:28:46;;;;;;;34.08;19.02;;;10.00;99.90;;;;;;4988008;28;20385;-77
2022/10/13 04:31:12;;;;;;;30.42;21.70;;;10.10;99.90;;;;;;4990919;28;20516;-76
2022/10/13 04:33:38;;;;;;;35.88;21.02;;;9.90;99.90;;;;;;4989404;28;20481;-77
2022/10/13 04:36:05;;;;;;;28.90;20.90;;;10.10;99.90;;;;;;4987544;28;20181;-76
2022/10/13 04:38:31;;;;;;;35.55;21.65;;;10.00;99.90;;;;;;4988477;28;20158;-77
2022/10/13 04:40:56;;;;;;;38.53;22.65;;;10.20;99.90;;;;;;5015916;28;20464;-77
2022/10/13 04:43:22;;;;;;;33.40;21.45;;;10.20;99.90;;;;;;5000204;28;20039;-76
2022/10/13 04:45:48;;;;;;;32.38;20.05;;;10.10;99.90;;;;;;4988014;28;20160;-75
2022/10/13 04:48:14;;;;;;;35.13;21.67;;;10.00;99.90;;;;;;4990709;28;20096;-77
2022/10/13 04:50:39;;;;;;;39.38;23.27;;;10.20;99.90;;;;;;4993104;28;20396;-76
2022/10/13 04:53:05;;;;;;;36.22;21.80;;;10.00;99.90;;;;;;4986511;28;20046;-76
2022/10/13 04:55:34;;;;;;;42.28;24.65;;;10.00;99.90;;;;;;4989266;28;20161;-75
2022/10/13 04:58:00;;;;;;;33.83;22.13;;;10.00;99.90;;;;;;4987754;28;20367;-77
2022/10/13 05:00:26;;;;;;;44.63;22.52;;;10.10;99.90;;;;;;4987700;28;20057;-76
2022/10/13 05:02:51;;;;;;;34.75;22.90;;;10.30;99.90;;;;;;4989111;28;20076;-76
2022/10/13 05:05:17;;;;;;;38.65;21.83;;;10.00;99.90;;;;;;4990745;28;20038;-76
2022/10/13 05:07:43;;;;;;;34.97;22.40;;;10.20;99.90;;;;;;4992098;28;20049;-77
2022/10/13 05:10:08;;;;;;;33.58;21.88;;;10.00;99.90;;;;;;4990454;28;20064;-76
2022/10/13 05:12:34;;;;;;;31.67;21.15;;;10.30;99.90;;;;;;4989709;28;20057;-76
2022/10/13 05:15:00;;;;;;;37.85;23.38;;;10.00;99.90;;;;;;4987792;28;20038;-76
2022/10/13 05:17:29;;;;;;;34.92;21.77;;;10.30;99.90;;;;;;5014133;28;20050;-77
2022/10/13 05:19:55;;;;;;;36.22;23.00;;;10.10;99.90;;;;;;4972271;28;20043;-76
2022/10/13 05:22:20;;;;;;;37.55;22.98;;;10.20;99.90;;;;;;4971806;28;20039;-76
2022/10/13 05:24:46;;;;;;;36.22;22.40;;;10.10;99.90;;;;;;4973489;28;20181;-77
2022/10/13 05:27:12;;;;;;;35.90;24.60;;;10.30;99.90;;;;;;4983895;28;20093;-77
2022/10/13 05:29:39;;;;;;;36.85;21.77;;;10.10;99.90;;;;;;4994599;28;20061;-76
2022/10/13 05:32:05;;;;;;;43.65;26.35;;;10.10;99.90;;;;;;4994014;28;20050;-76
2022/10/13 05:34:31;;;;;;;29.92;22.38;;;10.10;99.90;;;;;;5026524;28;20125;-76
2022/10/13 05:36:58;;;;;;;39.05;24.77;;;10.30;99.90;;;;;;4994754;28;20042;-77
2022/10/13 05:39:23;;;;;;;34.90;24.83;;;10.20;99.90;;;;;;5008917;28;20074;-76
2022/10/13 05:41:49;;;;;;;39.67;24.45;;;10.20;99.90;;;;;;4994770;28;20132;-77
2022/10/13 05:44:16;;;;;;;29.77;23.05;;;10.10;99.90;;;;;;5025598;28;20049;-76
2022/10/13 05:46:42;;;;;;;41.72;23.92;;;10.00;99.90;;;;;;5025564;28;20074;-76
2022/10/13 05:49:08;;;;;;;37.22;25.25;;;10.20;99.90;;;;;;5009629;28;20092;-76
2022/10/13 05:51:44;;;;;;;43.03;24.50;;;10.40;99.90;;;;;;4993545;28;20049;-76
2022/10/13 05:54:36;;;;;;;42.10;27.73;;;10.10;99.90;;;;;;4991814;28;20133;-76
2022/10/13 05:57:16;;;;;;;36.17;24.77;;;10.30;99.90;;;;;;4987053;28;20830;-76
2022/10/13 05:59:54;;;;;;;42.83;25.95;;;10.20;99.90;;;;;;5025937;28;20042;-76
2022/10/13 06:02:23;;;;;;;42.47;24.58;;;10.40;99.90;;;;;;4993348;28;20429;-76
2022/10/13 06:04:52;;;;;;;41.15;24.10;;;10.10;99.90;;;;;;4984283;28;20042;-76
2022/10/13 06:07:19;;;;;;;42.90;26.35;;;10.40;99.90;;;;;;4989083;28;20510;-76
2022/10/13 06:09:45;;;;;;;47.83;28.67;;;10.30;99.90;;;;;;4987174;28;20062;-76
2022/10/13 06:12:10;;;;;;;56.03;30.30;;;10.40;99.90;;;;;;4989799;28;20061;-76
2022/10/13 06:14:36;;;;;;;47.88;26.98;;;10.20;99.90;;;;;;4987752;28;20046;-76
2022/10/13 06:17:02;;;;;;;42.72;27.05;;;10.30;99.90;;;;;;4991692;28;20100;-76
2022/10/13 06:19:28;;;;;;;42.00;27.45;;;10.50;99.90;;;;;;4992809;28;20130;-76
2022/10/13 06:21:53;;;;;;;40.55;24.95;;;10.30;99.90;;;;;;4990718;28;20533;-76
2022/10/13 06:24:19;;;;;;;47.85;29.40;;;10.30;99.90;;;;;;4993653;28;20094;-76
2022/10/13 06:26:45;;;;;;;41.22;27.27;;;10.30;99.90;;;;;;4991625;28;20046;-76
2022/10/13 06:29:10;;;;;;;46.80;29.63;;;10.40;99.90;;;;;;4995538;28;20125;-75
2022/10/13 06:31:36;;;;;;;41.17;27.75;;;10.60;99.90;;;;;;4988754;28;20078;-74
2022/10/13 06:34:02;;;;;;;48.10;28.75;;;10.70;99.90;;;;;;4993776;28;20038;-75
2022/10/13 06:36:27;;;;;;;41.67;26.55;;;10.70;99.90;;;;;;4973979;28;20045;-73
2022/10/13 06:38:53;;;;;;;41.83;27.60;;;10.50;99.90;;;;;;4991449;28;20102;-73
2022/10/13 06:41:19;;;;;;;50.65;28.98;;;10.70;99.90;;;;;;5005698;28;20076;-73
2022/10/13 06:43:44;;;;;;;56.78;30.83;;;10.80;99.90;;;;;;4989210;28;20034;-73
2022/10/13 06:46:11;;;;;;;45.90;29.92;;;10.70;99.90;;;;;;4991172;28;20042;-73
2022/10/13 06:48:37;;;;;;;47.67;29.70;;;10.90;99.90;;;;;;4994271;28;20039;-73
2022/10/13 06:51:11;;;;;;;43.00;29.20;;;10.60;99.90;;;;;;4987482;28;20050;-73
2022/10/13 06:53:37;;;;;;;45.80;29.55;;;10.70;99.90;;;;;;4988157;28;20045;-73
2022/10/13 06:56:05;;;;;;;54.50;30.58;;;10.90;99.90;;;;;;4990665;28;20054;-73
2022/10/13 06:58:31;;;;;;;53.28;31.42;;;10.70;99.90;;;;;;4994542;28;20096;-73
2022/10/13 07:00:57;;;;;;;47.38;28.88;;;11.00;99.90;;;;;;4996181;28;20464;-73
2022/10/13 07:03:23;;;;;;;45.58;28.70;;;11.10;99.90;;;;;;4988889;28;20038;-73
2022/10/13 07:05:49;;;;;;;40.72;28.75;;;10.90;99.90;;;;;;4992177;28;20057;-73
2022/10/13 07:08:15;;;;;;;46.33;27.35;;;11.20;99.90;;;;;;4990408;28;20046;-74
2022/10/13 07:10:41;;;;;;;43.65;26.85;;;11.10;99.90;;;;;;4991553;28;20051;-74
2022/10/13 07:13:07;;;;;;;47.65;28.20;;;11.10;99.90;;;;;;4997271;28;20056;-74
2022/10/13 07:15:35;;;;;;;41.70;26.88;;;11.20;99.90;;;;;;4993244;28;20043;-74
2022/10/13 07:18:01;;;;;;;51.08;28.52;;;11.00;99.90;;;;;;4990418;28;20290;-73
2022/10/13 07:20:27;;;;;;;47.67;28.42;;;11.20;99.90;;;;;;4989695;28;20135;-74
2022/10/13 07:22:53;;;;;;;42.05;29.30;;;11.40;99.90;;;;;;4989725;28;20567;-75
2022/10/13 07:25:19;;;;;;;46.65;28.98;;;11.20;99.90;;;;;;4997528;28;20053;-75
2022/10/13 07:27:44;;;;;;;44.42;28.38;;;11.60;99.90;;;;;;5021786;28;21843;-74
2022/10/13 07:30:11;;;;;;;46.25;28.45;;;11.20;99.90;;;;;;4973459;28;20046;-74
2022/10/13 07:32:40;;;;;;;43.33;27.85;;;11.60;99.90;;;;;;4984793;28;20112;-75
2022/10/13 07:35:09;;;;;;;47.22;28.98;;;11.80;99.90;;;;;;4991246;28;20512;-74
2022/10/13 07:37:36;;;;;;;60.35;31.27;;;11.60;99.90;;;;;;4989597;28;20042;-74
2022/10/13 07:40:02;;;;;;;40.85;27.77;;;11.90;99.90;;;;;;4990541;28;20064;-75
2022/10/13 07:42:28;;;;;;;44.90;27.27;;;11.80;99.90;;;;;;4985922;28;20450;-75
2022/10/13 07:44:54;;;;;;;49.22;30.63;;;12.00;99.90;;;;;;4998505;28;20150;-75
2022/10/13 07:47:19;;;;;;;40.53;28.00;;;11.60;99.90;;;;;;4997689;28;20054;-75
2022/10/13 07:49:45;;;;;;;39.90;26.88;;;12.00;99.90;;;;;;5011471;28;20042;-72
2022/10/13 07:52:11;;;;;;;40.75;28.13;;;12.00;99.90;;;;;;4990336;28;20039;-75
2022/10/13 07:54:36;;;;;;;49.70;27.27;;;11.90;99.90;;;;;;4990226;28;20085;-74
2022/10/13 07:57:02;;;;;;;44.78;27.27;;;11.70;99.90;;;;;;4990482;28;20085;-74
2022/10/13 07:59:28;;;;;;;35.03;26.10;;;12.00;99.90;;;;;;4989449;28;20046;-75
2022/10/13 08:01:54;;;;;;;41.95;27.88;;;12.20;99.90;;;;;;4990686;28;20440;-74
2022/10/13 08:04:20;;;;;;;47.22;29.77;;;11.80;99.90;;;;;;4990888;28;20053;-74
2022/10/13 08:06:46;;;;;;;46.13;27.92;;;11.90;99.90;;;;;;4990916;28;20038;-74
2022/10/13 08:09:11;;;;;;;46.53;25.55;;;12.10;99.90;;;;;;4987960;28;20042;-75
2022/10/13 08:11:37;;;;;;;43.95;27.13;;;12.00;99.90;;;;;;4990465;28;20488;-73
2022/10/13 08:14:03;;;;;;;43.08;27.88;;;12.10;99.90;;;;;;4992205;28;20054;-73
2022/10/13 08:16:30;;;;;;;47.80;27.42;;;12.30;99.90;;;;;;5002521;28;20042;-73
2022/10/13 08:18:57;;;;;;;40.53;29.23;;;12.00;99.90;;;;;;5002217;28;20108;-73
2022/10/13 08:21:24;;;;;;;40.30;28.65;;;12.30;99.90;;;;;;4988878;28;20136;-73
2022/10/13 08:23:50;;;;;;;55.63;32.00;;;12.00;99.90;;;;;;4981767;28;20075;-74
2022/10/13 08:26:23;;;;;;;47.30;29.17;;;12.00;99.90;;;;;;4971351;28;20125;-73
2022/10/13 08:28:49;;;;;;;44.13;30.15;;;12.40;99.90;;;;;;4981940;28;20041;-73
2022/10/13 08:31:14;;;;;;;44.47;32.38;;;12.00;99.90;;;;;;4990324;28;20050;-74
2022/10/13 08:33:40;;;;;;;49.92;30.50;;;12.20;99.90;;;;;;4988827;28;20046;-73
2022/10/13 08:36:07;;;;;;;46.40;30.15;;;12.30;99.90;;;;;;4986834;28;20053;-74
2022/10/13 08:38:33;;;;;;;50.22;29.55;;;12.10;99.90;;;;;;4988696;28;20042;-75
2022/10/13 08:41:00;;;;;;;45.35;30.50;;;12.10;99.90;;;;;;5011072;28;20086;-74
2022/10/13 08:43:26;;;;;;;47.28;29.55;;;12.10;99.90;;;;;;4983223;28;20038;-75
2022/10/13 08:45:59;;;;;;;49.15;31.92;;;12.10;99.90;;;;;;4989674;28;20050;-75
2022/10/13 08:48:35;;;;;;;49.60;30.88;;;12.70;99.90;;;;;;4993088;28;20501;-74
2022/10/13 08:51:05;;;;;;;44.35;30.77;;;12.70;99.90;;;;;;5000686;28;20069;-74
2022/10/13 08:53:33;;;;;;;50.58;31.65;;;12.30;99.90;;;;;;4986660;28;20850;-74
2022/10/13 08:56:19;;;;;;;49.17;31.77;;;12.30;99.90;;;;;;4977604;28;20049;-74
2022/10/13 08:58:46;;;;;;;44.15;29.33;;;12.80;99.90;;;;;;5002711;28;20055;-73
2022/10/13 09:01:15;;;;;;;49.00;31.85;;;12.40;99.90;;;;;;4987360;28;20050;-74
2022/10/13 09:03:53;;;;;;;46.00;29.73;;;12.40;99.90;;;;;;4987112;28;20163;-73
2022/10/13 09:06:36;;;;;;;46.58;29.80;;;12.90;99.90;;;;;;5005594;28;20047;-73
2022/10/13 09:09:14;;;;;;;49.17;31.20;;;12.70;99.90;;;;;;4988381;28;20096;-72
2022/10/13 09:11:46;;;;;;;48.80;30.90;;;12.80;99.90;;;;;;5020477;28;20054;-72
2022/10/13 09:14:23;;;;;;;45.92;30.83;;;12.50;99.90;;;;;;4987885;28;20129;-73
2022/10/13 09:16:50;;;;;;;49.38;33.20;;;12.90;99.90;;;;;;4983908;28;20041;-72
2022/10/13 09:19:26;;;;;;;50.65;33.70;;;13.00;99.90;;;;;;4989093;28;20088;-72
2022/10/13 09:21:57;;;;;;;50.65;32.53;;;12.50;99.90;;;;;;4987276;28;20050;-72
2022/10/13 09:24:25;;;;;;;55.30;30.70;;;12.60;99.90;;;;;;4980884;28;20056;-73
2022/10/13 09:27:06;;;;;;;61.47;32.70;;;13.10;99.90;;;;;;4976196;28;20050;-72
2022/10/13 09:29:32;;;;;;;48.65;30.77;;;13.10;99.90;;;;;;4987806;28;20068;-72
2022/10/13 09:32:20;;;;;;;44.35;29.27;;;13.00;99.90;;;;;;4989432;28;20038;-72
2022/10/13 09:34:46;;;;;;;53.38;32.70;;;13.10;99.90;;;;;;4986692;28;20101;-73
2022/10/13 09:37:22;;;;;;;44.00;28.67;;;13.10;99.90;;;;;;4985999;28;20076;-74
2022/10/13 09:40:12;;;;;;;42.95;28.88;;;13.20;99.90;;;;;;4969561;28;20046;-72
2022/10/13 09:42:39;;;;;;;47.60;29.80;;;13.20;99.90;;;;;;4980784;28;20088;-72
2022/10/13 09:45:20;;;;;;;48.03;30.50;;;12.70;99.90;;;;;;4988888;28;20070;-72
2022/10/13 09:48:06;;;;;;;50.40;32.17;;;12.70;99.90;;;;;;4989107;28;20046;-71
2022/10/13 09:50:34;;;;;;;52.53;32.65;;;12.70;99.90;;;;;;4988912;28;20054;-72
2022/10/13 09:53:24;;;;;;;45.05;28.38;;;13.40;99.90;;;;;;5002219;28;20042;-72
2022/10/13 09:56:07;;;;;;;51.75;28.13;;;12.80;99.90;;;;;;4989972;28;20043;-72
2022/10/13 09:58:38;;;;;;;45.45;29.50;;;12.90;99.90;;;;;;4990524;28;20497;-72
2022/10/13 10:01:04;;;;;;;52.83;31.85;;;13.10;99.90;;;;;;4987258;28;20050;-73
2022/10/13 10:03:37;;;;;;;51.55;31.27;;;13.50;99.90;;;;;;4988384;28;20386;-72
2022/10/13 10:06:06;;;;;;;49.80;29.73;;;13.10;99.90;;;;;;4988837;28;20053;-72
2022/10/13 10:08:56;;;;;;;46.50;27.83;;;13.50;99.90;;;;;;4976026;28;20043;-73
2022/10/13 10:11:31;;;;;;;48.45;30.17;;;13.50;99.90;;;;;;4979423;28;20344;-73
2022/10/13 10:14:01;;;;;;;48.80;29.90;;;13.10;99.90;;;;;;5016569;28;20057;-71
2022/10/13 10:16:43;;;;;;;46.95;30.08;;;13.00;99.90;;;;;;4991266;28;20074;-74
2022/10/13 10:19:18;;;;;;;44.30;28.33;;;13.60;99.90;;;;;;4993227;28;20053;-73
2022/10/13 10:22:04;;;;;;;46.45;28.98;;;13.70;99.90;;;;;;5006349;28;20061;-73
2022/10/13 10:24:45;;;;;;;42.47;28.33;;;13.50;99.90;;;;;;4979457;28;20105;-73
2022/10/13 10:27:20;;;;;;;43.20;28.20;;;13.20;99.90;;;;;;4991532;28;20061;-73
2022/10/13 10:29:52;;;;;;;51.47;29.42;;;13.60;99.90;;;;;;4989899;28;20049;-73
2022/10/13 10:32:44;;;;;;;43.97;28.15;;;13.10;99.90;;;;;;4987022;28;20050;-73
2022/10/13 10:35:35;;;;;;;46.20;29.67;;;13.00;99.90;;;;;;4990779;28;20054;-73
2022/10/13 10:38:31;;;;;;;39.22;25.38;;;13.40;99.90;;;;;;4951050;28;20113;-74
2022/10/13 10:41:15;;;;;;;43.95;26.60;;;13.60;99.90;;;;;;4979635;28;20057;-73
2022/10/13 10:44:01;;;;;;;44.95;26.58;;;13.60;99.90;;;;;;4991222;28;20039;-75
2022/10/13 10:46:35;;;;;;;34.92;23.27;;;13.20;99.90;;;;;;4982066;28;20445;-72
2022/10/13 10:49:12;;;;;;;35.60;24.40;;;13.60;99.90;;;;;;4985200;28;20042;-73
2022/10/13 10:51:38;;;;;;;34.55;25.27;;;13.70;99.90;;;;;;4991528;28;20178;-72
2022/10/13 10:54:04;;;;;;;35.75;26.05;;;13.60;99.90;;;;;;5022534;28;20548;-73
2022/10/13 10:56:51;;;;;;;32.55;23.17;;;13.60;99.90;;;;;;4997262;28;20053;-72
2022/10/13 10:59:41;;;;;;;37.22;23.60;;;13.40;99.90;;;;;;4983090;28;20043;-73
2022/10/13 11:02:07;;;;;;;33.50;24.27;;;13.30;99.90;;;;;;4989904;28;20042;-72
2022/10/13 11:04:43;;;;;;;36.90;25.33;;;13.80;99.90;;;;;;4989959;28;20050;-74
2022/10/13 11:07:22;;;;;;;32.42;24.23;;;13.80;99.90;;;;;;5023516;28;20050;-73
2022/10/13 11:09:47;;;;;;;34.95;25.00;;;13.40;99.90;;;;;;4992309;28;20100;-73
2022/10/13 11:12:19;;;;;;;30.15;24.55;;;13.90;99.90;;;;;;4993528;28;20081;-75
2022/10/13 11:15:08;;;;;;;42.67;27.13;;;14.10;99.90;;;;;;5019280;28;20057;-73
2022/10/13 11:17:38;;;;;;;38.33;27.38;;;13.50;99.90;;;;;;4990890;28;20122;-74
2022/10/13 11:20:15;;;;;;;;;;;13.70;99.90;;;;;;4989020;28;20049;-74
2022/10/13 11:23:01;;;;;;;31.55;23.77;;;14.30;99.90;;;;;;4990707;28;20444;-73
2022/10/13 11:25:43;;;;;;;38.30;26.40;;;14.50;99.90;;;;;;4990831;28;20043;-73
2022/10/13 11:28:21;;;;;;;33.92;26.48;;;13.90;99.90;;;;;;4958436;28;20521;-75
2022/10/13 11:30:54;;;;;;;32.80;25.10;;;13.90;99.90;;;;;;4990505;28;20121;-74
2022/10/13 11:33:37;;;;;;;35.05;24.77;;;14.00;99.90;;;;;;4988454;28;20038;-73
2022/10/13 11:36:34;;;;;;;29.33;23.80;;;14.50;99.90;;;;;;4972546;28;20050;-73
2022/10/13 11:39:27;;;;;;;31.58;22.95;;;14.50;99.90;;;;;;4976982;28;20053;-74
2022/10/13 11:42:15;;;;;;;35.45;21.65;;;14.30;99.90;;;;;;4989713;28;20105;-75
2022/10/13 11:44:57;;;;;;;30.05;21.45;;;13.90;99.90;;;;;;4988571;28;20062;-73
2022/10/13 11:47:41;;;;;;;27.52;19.63;;;14.10;99.90;;;;;;4990581;28;21674;-77
2022/10/13 11:50:30;;;;;;;34.72;23.17;;;13.90;99.90;;;;;;4991117;28;20046;-77
2022/10/13 11:53:03;;;;;;;26.63;21.15;;;14.50;99.90;;;;;;4991656;28;20046;-76
2022/10/13 11:55:51;;;;;;;30.80;22.83;;;14.10;99.90;;;;;;4991029;28;20050;-79
2022/10/13 11:58:20;;;;;;;29.38;21.60;;;14.40;99.90;;;;;;4981889;28;20046;-76
2022/10/13 12:01:00;;;;;;;23.45;17.25;;;14.10;99.90;;;;;;4990532;28;20425;-74
2022/10/13 12:03:29;;;;;;;23.38;18.30;;;14.50;99.90;;;;;;4987315;28;20054;-75
2022/10/13 12:05:59;;;;;;;25.80;18.45;;;14.60;99.90;;;;;;4975532;28;20441;-74
2022/10/13 12:08:27;;;;;;;23.70;19.55;;;13.90;99.90;;;;;;4990474;28;20498;-76
2022/10/13 12:10:56;;;;;;;28.33;20.65;;;13.90;99.90;;;;;;4984889;28;20062;-75
2022/10/13 12:13:27;;;;;;;23.50;17.85;;;13.90;99.90;;;;;;4973945;28;20081;-76
2022/10/13 12:16:02;;;;;;;20.65;16.25;;;14.20;99.90;;;;;;4989584;28;20050;-75
2022/10/13 12:18:37;;;;;;;21.83;17.23;;;13.90;99.90;;;;;;4995498;28;20104;-75
2022/10/13 12:21:11;;;;;;;19.73;17.10;;;13.90;99.90;;;;;;4987224;28;20050;-74
2022/10/13 12:23:37;;;;;;;18.33;16.42;;;14.40;99.90;;;;;;4988472;28;20055;-75
2022/10/13 12:26:03;;;;;;;24.30;17.13;;;14.20;99.90;;;;;;5018439;28;20390;-74
2022/10/13 12:28:51;;;;;;;21.83;18.00;;;14.40;99.90;;;;;;4990365;28;20038;-75
2022/10/13 12:31:18;;;;;;;20.17;15.55;;;14.20;99.90;;;;;;4981720;28;20055;-74
2022/10/13 12:33:54;;;;;;;26.63;18.20;;;14.40;99.90;;;;;;4973756;28;20134;-75
2022/10/13 12:36:29;;;;;;;25.08;16.45;;;14.00;99.90;;;;;;4980146;28;20047;-75
2022/10/13 12:39:01;;;;;;;23.15;15.05;;;14.70;99.90;;;;;;4998567;28;20038;-75
2022/10/13 12:41:33;;;;;;;22.13;17.90;;;14.50;99.90;;;;;;4988424;28;20473;-76
2022/10/13 12:43:59;;;;;;;24.13;16.10;;;14.20;99.90;;;;;;4988552;28;20034;-75
2022/10/13 12:46:41;;;;;;;24.15;16.55;;;14.50;99.90;;;;;;4989661;28;20624;-75